EGGWLPPD

Guest
Details From EGGW - London Luton
To LPPD - Ponta Delgada
Flight Number -
Tags Generated
Created
Modified
Stats Distance 1,362 nm / 2,522 km
Max Altitude 0 ft / 0 m
Waypoints 6
Social Downloads 1
Likes 0
Share VATSIM

Download

Looking for another format? Having issues loading an existing format? Contact us
Advertisement - Login to hide

Notes

Generated

Route

EGGW BUMUX MABUG TAKAS PD LPPD

ID Type Via Altitude Latitude Longitude Leg Dist Tot Dist Heading (true) Name
O EGGW APT - 0 ft / 0 m 51.87202˚ -0.38355˚ - 0 nm - -
BUMUX FIX - 0 ft / 0 m 50.80444˚ -3.34944˚ 128 nm 128 nm 241° / 239° -
MABUG FIX - 0 ft / 0 m 49.78472˚ -5.93667˚ 116 nm 245 nm 239° / 237° -
TAKAS FIX - 0 ft / 0 m 49.00000˚ -8.00000˚ 93 nm 338 nm 240° / 239° -
PD NDB - 0 ft / 0 m 37.73500˚ -25.67500˚ 1021 nm 1360 nm 235° / 223° PONTA DELGADA NDB
O LPPD APT - 0 ft / 0 m 37.74624˚ -25.71090˚ 1 nm 1362 nm 292° / 292° -

Altitude Profile

Advertisement - Login to hide

Weather


0- 5 10 15 20 25 30 35+ Temperature / ° C

Clouds and Precipitation
Forecast for 2017-12-16 12:00 UTC. Updated 9 minutes ago

Ground ~20,000 ft ~40,000 ft Winds

EGGW

Details ICAO EGGW (LTN)
Name London Luton
Region United Kingdom
Timezone Europe/London (UTC+0.0)
Stats Elevation 526 ft / 160 m (AMSL)
Location 51.874629° -0.368450°
Runways 1
Magnetic Variation 0.572° W

METAR

EGGW 160920Z AUTO 30008KT 9999 NCD 00/M02 Q1016

Decode

TAF

TAF EGGW 160456Z 1606/1706 33010KT 9999 FEW025 TEMPO 1612/1619 BKN008 PROB30 TEMPO 1612/1619 9000 -RA BECMG 1621/1624 27004KT PROB30 TEMPO 1621/1624 2000 BR BKN001 PROB40 1700/1706 0300 FZFG VV///

Decode

Departure Runways

ID Width Length Bearing (true) Bearing (mag) Surface Threshold Offset Overrun Length
08 151 ft / 46 m 7,066 ft / 2,154 m 74.35° 74.92° Asphalt 0 ft / 0 m 200 ft / 61 m
26 151 ft / 46 m 7,066 ft / 2,154 m 254.38° 254.95° Asphalt 272 ft / 83 m 0 ft / 0 m

LPPD

Details ICAO LPPD (PDL)
Name PONTA DELGADA
Region Portugal
Timezone Atlantic/Azores (UTC-1.0)
Stats Elevation 259 ft / 79 m (AMSL)
Location 37.742078° -25.697736°
Runways 1
Magnetic Variation 8.361° W

METAR

LPPD 160900Z 33007KT 290V360 9999 FEW018 SCT030 15/12 Q1030

Decode

TAF

TAF LPPD 160500Z 1606/1706 VRB05KT 9999 FEW015 BKN030 TEMPO 1606/1706 SCT018 TEMPO 1606/1618 30008KT

Decode

Destination Runways

ID Width Length Bearing (true) Bearing (mag) Surface Threshold Offset Overrun Length
12 148 ft / 45 m 8,179 ft / 2,493 m 111.77° 120.13° Asphalt 0 ft / 0 m 375 ft / 114 m
30 148 ft / 45 m 8,179 ft / 2,493 m 291.79° 300.15° Asphalt 787 ft / 240 m 0 ft / 0 m

Approach Navaids

Runway Type Ident Frequency Range Bearing (true) Bearing (mag) Slope Elevation
30 Localiser NL 109.50 MHz 18 nm / 33 km 291.78° 300.14° - 259 ft / 79 m (AMSL)
30 Glidescope NL 109.50 MHz 10 nm / 19 km 291.78° 300.14° 3.00° 259 ft / 79 m (AMSL)
30 DME NL 109.50 MHz 18 nm / 33 km - - - 259 ft / 79 m (AMSL)